sensor_id;sensor_type;location;lat;lon;timestamp;P1;durP1;ratioP1;P2;durP2;ratioP2
43891;SDS011;29555;45.350;5.578;2022-10-16T00:00:16;5.22;;;1.40;;
43891;SDS011;29555;45.350;5.578;2022-10-16T00:02:42;6.53;;;2.25;;
43891;SDS011;29555;45.350;5.578;2022-10-16T00:05:07;2.60;;;1.90;;
43891;SDS011;29555;45.350;5.578;2022-10-16T00:07:32;3.13;;;2.50;;
43891;SDS011;29555;45.350;5.578;2022-10-16T00:09:58;5.13;;;2.58;;
43891;SDS011;29555;45.350;5.578;2022-10-16T00:12:23;3.13;;;2.40;;
43891;SDS011;29555;45.350;5.578;2022-10-16T00:14:48;3.40;;;2.42;;
43891;SDS011;29555;45.350;5.578;2022-10-16T00:17:14;8.75;;;2.40;;
43891;SDS011;29555;45.350;5.578;2022-10-16T00:19:39;19.67;;;2.20;;
43891;SDS011;29555;45.350;5.578;2022-10-16T00:22:05;3.50;;;2.10;;
43891;SDS011;29555;45.350;5.578;2022-10-16T00:24:30;2.17;;;1.33;;
43891;SDS011;29555;45.350;5.578;2022-10-16T00:26:55;10.52;;;2.30;;
43891;SDS011;29555;45.350;5.578;2022-10-16T00:29:21;2.35;;;2.10;;
43891;SDS011;29555;45.350;5.578;2022-10-16T00:31:46;1.15;;;1.00;;
43891;SDS011;29555;45.350;5.578;2022-10-16T00:34:12;6.47;;;2.63;;
43891;SDS011;29555;45.350;5.578;2022-10-16T00:36:37;2.25;;;2.08;;
43891;SDS011;29555;45.350;5.578;2022-10-16T00:39:02;5.75;;;2.22;;
43891;SDS011;29555;45.350;5.578;2022-10-16T00:41:28;1.80;;;1.30;;
43891;SDS011;29555;45.350;5.578;2022-10-16T00:43:56;7.78;;;1.92;;
43891;SDS011;29555;45.350;5.578;2022-10-16T00:46:24;5.13;;;1.88;;
43891;SDS011;29555;45.350;5.578;2022-10-16T00:51:23;7.10;;;2.08;;
43891;SDS011;29555;45.350;5.578;2022-10-16T00:53:55;3.78;;;1.58;;
43891;SDS011;29555;45.350;5.578;2022-10-16T00:56:21;2.05;;;1.30;;
43891;SDS011;29555;45.350;5.578;2022-10-16T00:58:47;4.32;;;2.67;;
43891;SDS011;29555;45.350;5.578;2022-10-16T01:01:12;4.47;;;2.20;;
43891;SDS011;29555;45.350;5.578;2022-10-16T01:03:38;2.28;;;1.55;;
43891;SDS011;29555;45.350;5.578;2022-10-16T01:09:11;9.05;;;2.05;;
43891;SDS011;29555;45.350;5.578;2022-10-16T01:11:41;1.88;;;1.70;;
43891;SDS011;29555;45.350;5.578;2022-10-16T01:14:56;3.97;;;1.45;;
43891;SDS011;29555;45.350;5.578;2022-10-16T01:22:40;3.22;;;1.67;;
43891;SDS011;29555;45.350;5.578;2022-10-16T01:25:16;7.35;;;2.08;;
43891;SDS011;29555;45.350;5.578;2022-10-16T01:28:08;1.63;;;1.42;;
43891;SDS011;29555;45.350;5.578;2022-10-16T01:30:37;12.68;;;1.88;;
43891;SDS011;29555;45.350;5.578;2022-10-16T01:33:04;3.13;;;2.13;;
43891;SDS011;29555;45.350;5.578;2022-10-16T01:35:46;3.58;;;2.13;;
43891;SDS011;29555;45.350;5.578;2022-10-16T01:38:21;2.95;;;1.70;;
43891;SDS011;29555;45.350;5.578;2022-10-16T01:40:51;3.22;;;2.72;;
43891;SDS011;29555;45.350;5.578;2022-10-16T01:43:35;6.30;;;2.20;;
43891;SDS011;29555;45.350;5.578;2022-10-16T01:46:04;4.40;;;2.50;;
43891;SDS011;29555;45.350;5.578;2022-10-16T01:48:30;2.90;;;1.65;;
43891;SDS011;29555;45.350;5.578;2022-10-16T01:51:05;1.65;;;1.55;;
43891;SDS011;29555;45.350;5.578;2022-10-16T01:53:35;3.88;;;2.33;;
43891;SDS011;29555;45.350;5.578;2022-10-16T01:56:02;6.13;;;2.35;;
43891;SDS011;29555;45.350;5.578;2022-10-16T01:58:32;3.90;;;2.08;;
43891;SDS011;29555;45.350;5.578;2022-10-16T02:01:02;2.67;;;1.90;;
43891;SDS011;29555;45.350;5.578;2022-10-16T02:03:29;6.32;;;2.83;;
43891;SDS011;29555;45.350;5.578;2022-10-16T02:05:55;5.47;;;3.50;;
43891;SDS011;29555;45.350;5.578;2022-10-16T02:08:22;2.60;;;2.40;;
43891;SDS011;29555;45.350;5.578;2022-10-16T02:10:50;8.60;;;2.25;;
43891;SDS011;29555;45.350;5.578;2022-10-16T02:13:26;4.15;;;2.00;;
43891;SDS011;29555;45.350;5.578;2022-10-16T02:15:56;4.80;;;1.55;;
43891;SDS011;29555;45.350;5.578;2022-10-16T02:18:21;5.40;;;1.98;;
43891;SDS011;29555;45.350;5.578;2022-10-16T02:23:40;5.20;;;2.58;;
43891;SDS011;29555;45.350;5.578;2022-10-16T02:26:30;3.63;;;2.17;;
43891;SDS011;29555;45.350;5.578;2022-10-16T02:29:01;4.28;;;2.42;;
43891;SDS011;29555;45.350;5.578;2022-10-16T02:31:32;3.05;;;2.20;;
43891;SDS011;29555;45.350;5.578;2022-10-16T02:34:00;3.13;;;2.42;;
43891;SDS011;29555;45.350;5.578;2022-10-16T02:36:28;5.28;;;3.03;;
43891;SDS011;29555;45.350;5.578;2022-10-16T02:38:54;9.27;;;3.00;;
43891;SDS011;29555;45.350;5.578;2022-10-16T02:41:20;3.28;;;2.22;;
43891;SDS011;29555;45.350;5.578;2022-10-16T02:43:46;3.00;;;2.70;;
43891;SDS011;29555;45.350;5.578;2022-10-16T02:46:12;4.25;;;2.95;;
43891;SDS011;29555;45.350;5.578;2022-10-16T02:48:37;3.08;;;2.88;;
43891;SDS011;29555;45.350;5.578;2022-10-16T02:51:04;2.55;;;2.08;;
43891;SDS011;29555;45.350;5.578;2022-10-16T02:53:30;6.97;;;4.00;;
43891;SDS011;29555;45.350;5.578;2022-10-16T02:55:55;7.07;;;3.33;;
43891;SDS011;29555;45.350;5.578;2022-10-16T02:58:21;3.83;;;2.95;;
43891;SDS011;29555;45.350;5.578;2022-10-16T03:00:46;4.30;;;2.60;;
43891;SDS011;29555;45.350;5.578;2022-10-16T03:03:12;2.63;;;2.40;;
43891;SDS011;29555;45.350;5.578;2022-10-16T03:05:37;2.67;;;2.10;;
43891;SDS011;29555;45.350;5.578;2022-10-16T03:08:04;3.08;;;2.75;;
43891;SDS011;29555;45.350;5.578;2022-10-16T03:10:29;4.45;;;2.47;;
43891;SDS011;29555;45.350;5.578;2022-10-16T03:12:55;2.42;;;2.22;;
43891;SDS011;29555;45.350;5.578;2022-10-16T03:15:20;4.22;;;3.42;;
43891;SDS011;29555;45.350;5.578;2022-10-16T03:17:45;8.60;;;3.60;;
43891;SDS011;29555;45.350;5.578;2022-10-16T03:20:11;4.40;;;3.17;;
43891;SDS011;29555;45.350;5.578;2022-10-16T03:22:36;15.50;;;4.00;;
43891;SDS011;29555;45.350;5.578;2022-10-16T03:25:02;4.50;;;3.95;;
43891;SDS011;29555;45.350;5.578;2022-10-16T03:27:27;8.85;;;3.63;;
43891;SDS011;29555;45.350;5.578;2022-10-16T03:29:52;5.35;;;3.85;;
43891;SDS011;29555;45.350;5.578;2022-10-16T03:32:18;3.95;;;3.05;;
43891;SDS011;29555;45.350;5.578;2022-10-16T03:34:45;7.03;;;3.25;;
43891;SDS011;29555;45.350;5.578;2022-10-16T03:37:10;5.82;;;3.72;;
43891;SDS011;29555;45.350;5.578;2022-10-16T03:39:35;10.05;;;4.10;;
43891;SDS011;29555;45.350;5.578;2022-10-16T03:42:01;3.25;;;2.67;;
43891;SDS011;29555;45.350;5.578;2022-10-16T03:44:26;5.07;;;3.30;;
43891;SDS011;29555;45.350;5.578;2022-10-16T03:46:51;4.53;;;3.60;;
43891;SDS011;29555;45.350;5.578;2022-10-16T03:49:17;7.68;;;3.65;;
43891;SDS011;29555;45.350;5.578;2022-10-16T03:51:42;8.70;;;4.10;;
43891;SDS011;29555;45.350;5.578;2022-10-16T03:54:08;8.73;;;4.35;;
43891;SDS011;29555;45.350;5.578;2022-10-16T03:56:34;8.30;;;4.65;;
43891;SDS011;29555;45.350;5.578;2022-10-16T03:59:00;7.85;;;4.90;;
43891;SDS011;29555;45.350;5.578;2022-10-16T04:01:25;7.85;;;4.80;;
43891;SDS011;29555;45.350;5.578;2022-10-16T04:03:50;6.18;;;4.60;;
43891;SDS011;29555;45.350;5.578;2022-10-16T04:06:16;6.43;;;4.80;;
43891;SDS011;29555;45.350;5.578;2022-10-16T04:08:44;8.75;;;5.40;;
43891;SDS011;29555;45.350;5.578;2022-10-16T04:11:10;7.30;;;5.32;;
43891;SDS011;29555;45.350;5.578;2022-10-16T04:13:35;6.13;;;5.00;;
43891;SDS011;29555;45.350;5.578;2022-10-16T04:16:01;9.93;;;5.90;;
43891;SDS011;29555;45.350;5.578;2022-10-16T04:18:27;6.72;;;5.00;;
43891;SDS011;29555;45.350;5.578;2022-10-16T04:20:53;6.03;;;4.75;;
43891;SDS011;29555;45.350;5.578;2022-10-16T04:23:19;6.07;;;4.78;;
43891;SDS011;29555;45.350;5.578;2022-10-16T04:25:44;4.93;;;4.00;;
43891;SDS011;29555;45.350;5.578;2022-10-16T04:28:09;7.63;;;3.90;;
43891;SDS011;29555;45.350;5.578;2022-10-16T04:30:37;6.88;;;3.60;;
43891;SDS011;29555;45.350;5.578;2022-10-16T04:33:03;7.15;;;4.38;;
43891;SDS011;29555;45.350;5.578;2022-10-16T04:35:29;3.75;;;3.38;;
43891;SDS011;29555;45.350;5.578;2022-10-16T04:37:56;4.03;;;3.28;;
43891;SDS011;29555;45.350;5.578;2022-10-16T04:40:22;5.75;;;4.10;;
43891;SDS011;29555;45.350;5.578;2022-10-16T04:42:48;8.60;;;3.78;;
43891;SDS011;29555;45.350;5.578;2022-10-16T04:45:13;9.85;;;4.72;;
43891;SDS011;29555;45.350;5.578;2022-10-16T04:47:39;6.10;;;3.58;;
43891;SDS011;29555;45.350;5.578;2022-10-16T04:50:04;4.25;;;3.13;;
43891;SDS011;29555;45.350;5.578;2022-10-16T04:52:31;11.40;;;3.13;;
43891;SDS011;29555;45.350;5.578;2022-10-16T04:54:56;2.35;;;1.58;;
43891;SDS011;29555;45.350;5.578;2022-10-16T04:57:25;11.30;;;2.80;;
43891;SDS011;29555;45.350;5.578;2022-10-16T04:59:51;11.85;;;3.08;;
43891;SDS011;29555;45.350;5.578;2022-10-16T05:02:17;8.35;;;2.72;;
43891;SDS011;29555;45.350;5.578;2022-10-16T05:04:42;3.08;;;2.65;;
43891;SDS011;29555;45.350;5.578;2022-10-16T05:07:08;4.72;;;3.38;;
43891;SDS011;29555;45.350;5.578;2022-10-16T05:09:33;3.40;;;3.10;;
43891;SDS011;29555;45.350;5.578;2022-10-16T05:12:00;4.72;;;2.70;;
43891;SDS011;29555;45.350;5.578;2022-10-16T05:14:25;3.80;;;2.88;;
43891;SDS011;29555;45.350;5.578;2022-10-16T05:16:50;4.07;;;3.45;;
43891;SDS011;29555;45.350;5.578;2022-10-16T05:19:16;11.48;;;3.78;;
43891;SDS011;29555;45.350;5.578;2022-10-16T05:21:42;6.22;;;4.22;;
43891;SDS011;29555;45.350;5.578;2022-10-16T05:24:07;11.13;;;3.33;;
43891;SDS011;29555;45.350;5.578;2022-10-16T05:26:34;11.52;;;3.85;;
43891;SDS011;29555;45.350;5.578;2022-10-16T05:28:59;4.15;;;3.22;;
43891;SDS011;29555;45.350;5.578;2022-10-16T05:31:25;6.63;;;3.08;;
43891;SDS011;29555;45.350;5.578;2022-10-16T05:33:51;4.78;;;3.38;;
43891;SDS011;29555;45.350;5.578;2022-10-16T05:36:16;8.40;;;3.60;;
43891;SDS011;29555;45.350;5.578;2022-10-16T05:38:43;8.95;;;3.42;;
43891;SDS011;29555;45.350;5.578;2022-10-16T05:41:10;5.70;;;3.75;;
43891;SDS011;29555;45.350;5.578;2022-10-16T05:43:35;10.10;;;4.57;;
43891;SDS011;29555;45.350;5.578;2022-10-16T05:46:02;4.88;;;3.90;;
43891;SDS011;29555;45.350;5.578;2022-10-16T05:48:29;4.65;;;3.63;;
43891;SDS011;29555;45.350;5.578;2022-10-16T05:50:56;9.23;;;3.45;;
43891;SDS011;29555;45.350;5.578;2022-10-16T05:53:29;6.82;;;3.50;;
43891;SDS011;29555;45.350;5.578;2022-10-16T05:55:56;10.15;;;4.65;;
43891;SDS011;29555;45.350;5.578;2022-10-16T05:58:22;6.47;;;4.15;;
43891;SDS011;29555;45.350;5.578;2022-10-16T06:00:58;6.60;;;4.25;;
43891;SDS011;29555;45.350;5.578;2022-10-16T06:03:24;4.43;;;3.60;;
43891;SDS011;29555;45.350;5.578;2022-10-16T06:05:49;6.40;;;5.60;;
43891;SDS011;29555;45.350;5.578;2022-10-16T06:08:15;9.93;;;4.05;;
43891;SDS011;29555;45.350;5.578;2022-10-16T06:10:41;9.55;;;4.60;;
43891;SDS011;29555;45.350;5.578;2022-10-16T06:13:06;16.75;;;4.05;;
43891;SDS011;29555;45.350;5.578;2022-10-16T06:15:31;4.63;;;3.70;;
43891;SDS011;29555;45.350;5.578;2022-10-16T06:17:57;9.93;;;3.88;;
43891;SDS011;29555;45.350;5.578;2022-10-16T06:20:22;3.55;;;2.70;;
43891;SDS011;29555;45.350;5.578;2022-10-16T06:22:47;6.35;;;3.60;;
43891;SDS011;29555;45.350;5.578;2022-10-16T06:25:13;3.53;;;2.70;;
43891;SDS011;29555;45.350;5.578;2022-10-16T06:27:41;3.70;;;2.65;;
43891;SDS011;29555;45.350;5.578;2022-10-16T06:30:07;3.70;;;2.42;;
43891;SDS011;29555;45.350;5.578;2022-10-16T06:32:32;6.10;;;2.80;;
43891;SDS011;29555;45.350;5.578;2022-10-16T06:34:58;4.05;;;3.38;;
43891;SDS011;29555;45.350;5.578;2022-10-16T06:37:23;4.95;;;2.45;;
43891;SDS011;29555;45.350;5.578;2022-10-16T06:39:49;8.02;;;3.03;;
43891;SDS011;29555;45.350;5.578;2022-10-16T06:42:17;13.65;;;3.08;;
43891;SDS011;29555;45.350;5.578;2022-10-16T06:44:42;2.97;;;2.47;;
43891;SDS011;29555;45.350;5.578;2022-10-16T06:47:08;5.55;;;3.42;;
43891;SDS011;29555;45.350;5.578;2022-10-16T06:49:33;4.00;;;3.20;;
43891;SDS011;29555;45.350;5.578;2022-10-16T06:51:59;6.68;;;4.30;;
43891;SDS011;29555;45.350;5.578;2022-10-16T06:54:24;12.85;;;3.50;;
43891;SDS011;29555;45.350;5.578;2022-10-16T06:56:50;3.30;;;2.97;;
43891;SDS011;29555;45.350;5.578;2022-10-16T06:59:16;6.00;;;3.30;;
43891;SDS011;29555;45.350;5.578;2022-10-16T07:01:41;5.90;;;2.22;;
43891;SDS011;29555;45.350;5.578;2022-10-16T07:04:07;3.03;;;2.08;;
43891;SDS011;29555;45.350;5.578;2022-10-16T07:06:33;5.35;;;3.25;;
43891;SDS011;29555;45.350;5.578;2022-10-16T07:09:00;3.70;;;3.15;;
43891;SDS011;29555;45.350;5.578;2022-10-16T07:11:26;2.88;;;2.60;;
43891;SDS011;29555;45.350;5.578;2022-10-16T07:13:52;3.45;;;2.88;;
43891;SDS011;29555;45.350;5.578;2022-10-16T07:16:19;6.32;;;2.63;;
43891;SDS011;29555;45.350;5.578;2022-10-16T07:18:45;2.78;;;2.38;;
43891;SDS011;29555;45.350;5.578;2022-10-16T07:21:14;9.20;;;3.85;;
43891;SDS011;29555;45.350;5.578;2022-10-16T07:23:41;13.10;;;3.20;;
43891;SDS011;29555;45.350;5.578;2022-10-16T07:26:09;4.97;;;3.08;;
43891;SDS011;29555;45.350;5.578;2022-10-16T07:28:35;3.40;;;2.92;;
43891;SDS011;29555;45.350;5.578;2022-10-16T07:31:04;4.40;;;3.15;;
43891;SDS011;29555;45.350;5.578;2022-10-16T07:33:32;16.85;;;3.35;;
43891;SDS011;29555;45.350;5.578;2022-10-16T07:35:58;2.92;;;2.20;;
43891;SDS011;29555;45.350;5.578;2022-10-16T07:38:23;2.50;;;2.30;;
43891;SDS011;29555;45.350;5.578;2022-10-16T07:40:55;4.00;;;3.50;;
43891;SDS011;29555;45.350;5.578;2022-10-16T07:43:24;4.82;;;2.55;;
43891;SDS011;29555;45.350;5.578;2022-10-16T07:45:50;5.70;;;3.15;;
43891;SDS011;29555;45.350;5.578;2022-10-16T07:48:16;5.63;;;2.58;;
43891;SDS011;29555;45.350;5.578;2022-10-16T07:50:43;6.90;;;2.97;;
43891;SDS011;29555;45.350;5.578;2022-10-16T07:53:09;2.58;;;2.03;;
43891;SDS011;29555;45.350;5.578;2022-10-16T07:55:35;2.70;;;2.08;;
43891;SDS011;29555;45.350;5.578;2022-10-16T07:58:00;4.45;;;2.78;;
43891;SDS011;29555;45.350;5.578;2022-10-16T08:00:26;9.90;;;3.92;;
43891;SDS011;29555;45.350;5.578;2022-10-16T08:02:51;5.70;;;4.07;;
43891;SDS011;29555;45.350;5.578;2022-10-16T08:05:17;5.38;;;3.22;;
43891;SDS011;29555;45.350;5.578;2022-10-16T08:07:42;2.20;;;1.35;;
43891;SDS011;29555;45.350;5.578;2022-10-16T08:10:11;5.88;;;2.20;;
43891;SDS011;29555;45.350;5.578;2022-10-16T08:12:41;13.23;;;1.30;;
43891;SDS011;29555;45.350;5.578;2022-10-16T08:15:07;3.55;;;1.58;;
43891;SDS011;29555;45.350;5.578;2022-10-16T08:17:32;3.78;;;1.98;;
43891;SDS011;29555;45.350;5.578;2022-10-16T08:19:58;1.35;;;1.23;;
43891;SDS011;29555;45.350;5.578;2022-10-16T08:22:23;6.43;;;1.92;;
43891;SDS011;29555;45.350;5.578;2022-10-16T08:24:48;2.10;;;1.88;;
43891;SDS011;29555;45.350;5.578;2022-10-16T08:27:14;5.78;;;1.75;;
43891;SDS011;29555;45.350;5.578;2022-10-16T08:29:39;4.13;;;1.70;;
43891;SDS011;29555;45.350;5.578;2022-10-16T08:32:04;3.28;;;1.75;;
43891;SDS011;29555;45.350;5.578;2022-10-16T08:34:30;2.90;;;1.88;;
43891;SDS011;29555;45.350;5.578;2022-10-16T08:36:55;3.33;;;2.22;;
43891;SDS011;29555;45.350;5.578;2022-10-16T08:39:21;10.40;;;1.73;;
43891;SDS011;29555;45.350;5.578;2022-10-16T08:42:07;40.05;;;3.13;;
43891;SDS011;29555;45.350;5.578;2022-10-16T08:47:22;3.55;;;1.88;;
43891;SDS011;29555;45.350;5.578;2022-10-16T08:50:00;8.07;;;2.03;;
43891;SDS011;29555;45.350;5.578;2022-10-16T08:52:34;6.78;;;2.03;;
43891;SDS011;29555;45.350;5.578;2022-10-16T08:55:03;3.20;;;2.00;;
43891;SDS011;29555;45.350;5.578;2022-10-16T08:57:29;7.55;;;1.65;;
43891;SDS011;29555;45.350;5.578;2022-10-16T08:59:57;8.15;;;2.47;;
43891;SDS011;29555;45.350;5.578;2022-10-16T09:02:38;19.42;;;3.55;;
43891;SDS011;29555;45.350;5.578;2022-10-16T09:08:17;3.25;;;2.00;;
43891;SDS011;29555;45.350;5.578;2022-10-16T09:13:21;8.27;;;2.55;;
43891;SDS011;29555;45.350;5.578;2022-10-16T09:15:54;3.88;;;2.50;;
43891;SDS011;29555;45.350;5.578;2022-10-16T09:23:59;3.35;;;2.47;;
43891;SDS011;29555;45.350;5.578;2022-10-16T09:26:32;7.93;;;2.28;;
43891;SDS011;29555;45.350;5.578;2022-10-16T09:28:57;7.57;;;3.22;;
43891;SDS011;29555;45.350;5.578;2022-10-16T09:31:22;4.07;;;3.08;;
43891;SDS011;29555;45.350;5.578;2022-10-16T09:33:52;7.13;;;3.25;;
43891;SDS011;29555;45.350;5.578;2022-10-16T09:36:20;3.67;;;2.70;;
43891;SDS011;29555;45.350;5.578;2022-10-16T09:38:48;7.60;;;2.65;;
43891;SDS011;29555;45.350;5.578;2022-10-16T09:41:15;7.18;;;2.90;;
43891;SDS011;29555;45.350;5.578;2022-10-16T09:43:47;3.67;;;2.33;;
43891;SDS011;29555;45.350;5.578;2022-10-16T09:46:28;6.70;;;2.45;;
43891;SDS011;29555;45.350;5.578;2022-10-16T09:48:56;6.93;;;2.95;;
43891;SDS011;29555;45.350;5.578;2022-10-16T09:51:30;6.68;;;3.38;;
43891;SDS011;29555;45.350;5.578;2022-10-16T09:53:57;4.03;;;2.67;;
43891;SDS011;29555;45.350;5.578;2022-10-16T09:56:33;5.15;;;2.30;;
43891;SDS011;29555;45.350;5.578;2022-10-16T09:59:03;3.78;;;2.58;;
43891;SDS011;29555;45.350;5.578;2022-10-16T10:01:38;2.75;;;2.08;;
43891;SDS011;29555;45.350;5.578;2022-10-16T10:04:06;8.65;;;3.83;;
43891;SDS011;29555;45.350;5.578;2022-10-16T10:06:36;4.53;;;2.92;;
43891;SDS011;29555;45.350;5.578;2022-10-16T10:11:51;2.13;;;2.03;;
43891;SDS011;29555;45.350;5.578;2022-10-16T10:17:07;2.83;;;1.80;;
43891;SDS011;29555;45.350;5.578;2022-10-16T10:19:55;4.00;;;2.60;;
43891;SDS011;29555;45.350;5.578;2022-10-16T10:30:24;3.22;;;2.42;;
43891;SDS011;29555;45.350;5.578;2022-10-16T10:35:56;3.88;;;3.10;;
43891;SDS011;29555;45.350;5.578;2022-10-16T10:46:56;5.05;;;2.35;;
43891;SDS011;29555;45.350;5.578;2022-10-16T10:52:06;2.40;;;2.20;;
43891;SDS011;29555;45.350;5.578;2022-10-16T10:57:36;2.45;;;2.25;;
43891;SDS011;29555;45.350;5.578;2022-10-16T11:00:19;3.25;;;2.55;;
43891;SDS011;29555;45.350;5.578;2022-10-16T11:03:13;2.65;;;2.28;;
43891;SDS011;29555;45.350;5.578;2022-10-16T11:05:54;5.22;;;2.28;;
43891;SDS011;29555;45.350;5.578;2022-10-16T11:11:24;2.85;;;2.33;;
43891;SDS011;29555;45.350;5.578;2022-10-16T11:16:36;8.13;;;2.67;;
43891;SDS011;29555;45.350;5.578;2022-10-16T11:22:22;3.03;;;2.53;;
43891;SDS011;29555;45.350;5.578;2022-10-16T11:27:37;4.07;;;2.58;;
43891;SDS011;29555;45.350;5.578;2022-10-16T11:30:08;3.33;;;2.47;;
43891;SDS011;29555;45.350;5.578;2022-10-16T11:35:44;3.63;;;2.42;;
43891;SDS011;29555;45.350;5.578;2022-10-16T11:38:22;8.52;;;1.88;;
43891;SDS011;29555;45.350;5.578;2022-10-16T11:41:22;1.88;;;1.77;;
43891;SDS011;29555;45.350;5.578;2022-10-16T11:43:49;3.50;;;2.00;;
43891;SDS011;29555;45.350;5.578;2022-10-16T11:46:23;2.47;;;1.85;;
43891;SDS011;29555;45.350;5.578;2022-10-16T11:53:54;4.00;;;3.17;;
43891;SDS011;29555;45.350;5.578;2022-10-16T11:56:25;6.30;;;2.60;;
43891;SDS011;29555;45.350;5.578;2022-10-16T11:59:02;2.10;;;1.83;;
43891;SDS011;29555;45.350;5.578;2022-10-16T12:04:49;2.33;;;1.92;;
43891;SDS011;29555;45.350;5.578;2022-10-16T12:07:38;5.38;;;1.92;;
43891;SDS011;29555;45.350;5.578;2022-10-16T12:10:10;1.98;;;1.73;;
43891;SDS011;29555;45.350;5.578;2022-10-16T12:12:44;5.93;;;1.80;;
43891;SDS011;29555;45.350;5.578;2022-10-16T12:15:30;5.25;;;2.70;;
43891;SDS011;29555;45.350;5.578;2022-10-16T12:17:57;3.05;;;2.67;;
43891;SDS011;29555;45.350;5.578;2022-10-16T12:20:30;4.30;;;2.60;;
43891;SDS011;29555;45.350;5.578;2022-10-16T12:22:59;0.95;;;0.90;;
43891;SDS011;29555;45.350;5.578;2022-10-16T12:25:27;1.95;;;1.63;;
43891;SDS011;29555;45.350;5.578;2022-10-16T12:28:00;15.90;;;2.08;;
43891;SDS011;29555;45.350;5.578;2022-10-16T12:30:27;0.98;;;0.98;;
43891;SDS011;29555;45.350;5.578;2022-10-16T12:32:55;1.45;;;1.35;;
43891;SDS011;29555;45.350;5.578;2022-10-16T12:35:27;2.13;;;1.75;;
43891;SDS011;29555;45.350;5.578;2022-10-16T12:38:04;4.85;;;1.65;;
43891;SDS011;29555;45.350;5.578;2022-10-16T12:40:32;1.70;;;1.13;;
43891;SDS011;29555;45.350;5.578;2022-10-16T12:42:59;20.13;;;1.77;;
43891;SDS011;29555;45.350;5.578;2022-10-16T12:45:37;26.38;;;6.25;;
43891;SDS011;29555;45.350;5.578;2022-10-16T12:48:03;2.30;;;1.75;;
43891;SDS011;29555;45.350;5.578;2022-10-16T12:50:43;1.65;;;1.25;;
43891;SDS011;29555;45.350;5.578;2022-10-16T12:53:42;6.13;;;1.35;;
43891;SDS011;29555;45.350;5.578;2022-10-16T12:56:09;2.38;;;1.20;;
43891;SDS011;29555;45.350;5.578;2022-10-16T13:01:56;6.18;;;1.90;;
43891;SDS011;29555;45.350;5.578;2022-10-16T13:15:38;0.93;;;0.90;;
43891;SDS011;29555;45.350;5.578;2022-10-16T13:23:51;2.10;;;1.45;;
43891;SDS011;29555;45.350;5.578;2022-10-16T13:29:20;3.42;;;0.90;;
43891;SDS011;29555;45.350;5.578;2022-10-16T13:31:46;2.15;;;0.55;;
43891;SDS011;29555;45.350;5.578;2022-10-16T13:34:15;1.35;;;1.25;;
43891;SDS011;29555;45.350;5.578;2022-10-16T13:36:47;1.55;;;1.08;;
43891;SDS011;29555;45.350;5.578;2022-10-16T13:44:48;0.85;;;0.85;;
43891;SDS011;29555;45.350;5.578;2022-10-16T13:47:20;0.85;;;0.50;;
43891;SDS011;29555;45.350;5.578;2022-10-16T13:49:47;0.70;;;0.70;;
43891;SDS011;29555;45.350;5.578;2022-10-16T13:52:24;1.35;;;1.25;;
43891;SDS011;29555;45.350;5.578;2022-10-16T13:54:49;5.93;;;1.73;;
43891;SDS011;29555;45.350;5.578;2022-10-16T13:57:16;0.52;;;0.52;;
43891;SDS011;29555;45.350;5.578;2022-10-16T13:59:42;11.27;;;1.77;;
43891;SDS011;29555;45.350;5.578;2022-10-16T14:02:22;2.40;;;1.17;;
43891;SDS011;29555;45.350;5.578;2022-10-16T14:04:51;1.30;;;1.20;;
43891;SDS011;29555;45.350;5.578;2022-10-16T14:07:20;2.20;;;1.27;;
43891;SDS011;29555;45.350;5.578;2022-10-16T14:09:50;3.78;;;1.38;;
43891;SDS011;29555;45.350;5.578;2022-10-16T14:12:17;1.02;;;1.02;;
43891;SDS011;29555;45.350;5.578;2022-10-16T14:14:46;1.20;;;1.00;;
43891;SDS011;29555;45.350;5.578;2022-10-16T14:17:27;3.38;;;1.80;;
43891;SDS011;29555;45.350;5.578;2022-10-16T14:19:55;1.27;;;1.27;;
43891;SDS011;29555;45.350;5.578;2022-10-16T14:25:01;6.57;;;2.03;;
43891;SDS011;29555;45.350;5.578;2022-10-16T14:27:31;2.08;;;1.50;;
43891;SDS011;29555;45.350;5.578;2022-10-16T14:30:05;3.15;;;2.10;;
43891;SDS011;29555;45.350;5.578;2022-10-16T14:32:37;6.85;;;1.55;;
43891;SDS011;29555;45.350;5.578;2022-10-16T14:35:21;1.70;;;1.55;;
43891;SDS011;29555;45.350;5.578;2022-10-16T14:37:50;1.02;;;1.02;;
43891;SDS011;29555;45.350;5.578;2022-10-16T14:40:16;5.25;;;1.10;;
43891;SDS011;29555;45.350;5.578;2022-10-16T14:42:43;6.20;;;1.92;;
43891;SDS011;29555;45.350;5.578;2022-10-16T14:45:09;1.27;;;1.20;;
43891;SDS011;29555;45.350;5.578;2022-10-16T14:47:36;8.18;;;1.95;;
43891;SDS011;29555;45.350;5.578;2022-10-16T14:50:11;1.73;;;1.48;;
43891;SDS011;29555;45.350;5.578;2022-10-16T14:52:37;2.88;;;1.90;;
43891;SDS011;29555;45.350;5.578;2022-10-16T14:55:02;6.43;;;1.80;;
43891;SDS011;29555;45.350;5.578;2022-10-16T14:57:35;2.70;;;2.08;;
43891;SDS011;29555;45.350;5.578;2022-10-16T15:00:02;2.50;;;1.77;;
43891;SDS011;29555;45.350;5.578;2022-10-16T15:05:02;1.88;;;1.50;;
43891;SDS011;29555;45.350;5.578;2022-10-16T15:07:37;0.98;;;0.98;;
43891;SDS011;29555;45.350;5.578;2022-10-16T15:10:02;1.50;;;1.40;;
43891;SDS011;29555;45.350;5.578;2022-10-16T15:12:28;2.92;;;1.42;;
43891;SDS011;29555;45.350;5.578;2022-10-16T15:14:53;1.17;;;1.13;;
43891;SDS011;29555;45.350;5.578;2022-10-16T15:17:19;4.05;;;1.42;;
43891;SDS011;29555;45.350;5.578;2022-10-16T15:19:44;1.98;;;1.73;;
43891;SDS011;29555;45.350;5.578;2022-10-16T15:22:13;3.20;;;1.10;;
43891;SDS011;29555;45.350;5.578;2022-10-16T15:24:38;1.83;;;1.63;;
43891;SDS011;29555;45.350;5.578;2022-10-16T15:27:04;2.17;;;1.60;;
43891;SDS011;29555;45.350;5.578;2022-10-16T15:29:29;2.95;;;1.75;;
43891;SDS011;29555;45.350;5.578;2022-10-16T15:31:55;3.45;;;1.58;;
43891;SDS011;29555;45.350;5.578;2022-10-16T15:34:21;2.22;;;2.03;;
43891;SDS011;29555;45.350;5.578;2022-10-16T15:36:46;3.85;;;1.35;;
43891;SDS011;29555;45.350;5.578;2022-10-16T15:39:12;1.48;;;1.27;;
43891;SDS011;29555;45.350;5.578;2022-10-16T15:41:40;2.05;;;1.63;;
43891;SDS011;29555;45.350;5.578;2022-10-16T15:44:06;2.25;;;1.17;;
43891;SDS011;29555;45.350;5.578;2022-10-16T15:46:32;3.25;;;1.05;;
43891;SDS011;29555;45.350;5.578;2022-10-16T15:48:58;1.77;;;1.60;;
43891;SDS011;29555;45.350;5.578;2022-10-16T15:51:25;1.42;;;1.33;;
43891;SDS011;29555;45.350;5.578;2022-10-16T15:53:53;3.03;;;1.33;;
43891;SDS011;29555;45.350;5.578;2022-10-16T15:56:19;2.70;;;1.33;;
43891;SDS011;29555;45.350;5.578;2022-10-16T15:58:44;5.07;;;1.50;;
43891;SDS011;29555;45.350;5.578;2022-10-16T16:01:10;3.13;;;1.85;;
43891;SDS011;29555;45.350;5.578;2022-10-16T16:03:36;3.00;;;1.60;;
43891;SDS011;29555;45.350;5.578;2022-10-16T16:06:05;1.55;;;1.15;;
43891;SDS011;29555;45.350;5.578;2022-10-16T16:08:32;5.95;;;2.40;;
43891;SDS011;29555;45.350;5.578;2022-10-16T16:10:59;4.28;;;1.65;;
43891;SDS011;29555;45.350;5.578;2022-10-16T16:13:25;2.97;;;2.63;;
43891;SDS011;29555;45.350;5.578;2022-10-16T16:15:50;6.75;;;3.78;;
43891;SDS011;29555;45.350;5.578;2022-10-16T16:18:16;1.77;;;1.67;;
43891;SDS011;29555;45.350;5.578;2022-10-16T16:20:41;1.83;;;1.73;;
43891;SDS011;29555;45.350;5.578;2022-10-16T16:23:06;1.42;;;1.33;;
43891;SDS011;29555;45.350;5.578;2022-10-16T16:25:32;1.05;;;1.05;;
43891;SDS011;29555;45.350;5.578;2022-10-16T16:27:57;2.65;;;1.83;;
43891;SDS011;29555;45.350;5.578;2022-10-16T16:30:22;2.60;;;1.77;;
43891;SDS011;29555;45.350;5.578;2022-10-16T16:32:48;1.52;;;1.15;;
43891;SDS011;29555;45.350;5.578;2022-10-16T16:35:13;2.72;;;1.80;;
43891;SDS011;29555;45.350;5.578;2022-10-16T16:37:39;2.67;;;2.30;;
43891;SDS011;29555;45.350;5.578;2022-10-16T16:40:04;3.60;;;2.35;;
43891;SDS011;29555;45.350;5.578;2022-10-16T16:42:30;4.45;;;2.05;;
43891;SDS011;29555;45.350;5.578;2022-10-16T16:44:55;9.45;;;2.17;;
43891;SDS011;29555;45.350;5.578;2022-10-16T16:47:21;1.60;;;1.48;;